sensor_id;sensor_type;location;lat;lon;timestamp;temperature;humidity
17619;DHT22;8928;51.678;6.074;2023-04-03T00:02:03;0.10;99.90
17619;DHT22;8928;51.678;6.074;2023-04-03T00:04:50;0.10;99.90
17619;DHT22;8928;51.678;6.074;2023-04-03T00:07:37;0.00;99.90
17619;DHT22;8928;51.678;6.074;2023-04-03T00:10:25;-0.10;99.90
17619;DHT22;8928;51.678;6.074;2023-04-03T00:13:14;-0.20;99.90
17619;DHT22;8928;51.678;6.074;2023-04-03T00:16:01;-0.20;99.90
17619;DHT22;8928;51.678;6.074;2023-04-03T00:18:49;-0.20;99.90
17619;DHT22;8928;51.678;6.074;2023-04-03T00:21:36;-0.30;99.90
17619;DHT22;8928;51.678;6.074;2023-04-03T00:24:23;-0.20;99.90
17619;DHT22;8928;51.678;6.074;2023-04-03T00:27:10;-0.10;99.90
17619;DHT22;8928;51.678;6.074;2023-04-03T00:29:59;-0.20;99.90
17619;DHT22;8928;51.678;6.074;2023-04-03T00:32:47;-0.20;99.90
17619;DHT22;8928;51.678;6.074;2023-04-03T00:35:35;-0.10;99.90
17619;DHT22;8928;51.678;6.074;2023-04-03T00:38:22;-0.10;99.90
17619;DHT22;8928;51.678;6.074;2023-04-03T00:41:09;-0.10;99.90
17619;DHT22;8928;51.678;6.074;2023-04-03T00:43:56;-0.10;99.90
17619;DHT22;8928;51.678;6.074;2023-04-03T00:46:44;-0.10;99.90
17619;DHT22;8928;51.678;6.074;2023-04-03T00:49:31;-0.10;99.90
17619;DHT22;8928;51.678;6.074;2023-04-03T00:52:21;-0.10;99.90
17619;DHT22;8928;51.678;6.074;2023-04-03T00:55:09;-0.10;99.90
17619;DHT22;8928;51.678;6.074;2023-04-03T00:57:56;-0.10;99.90
17619;DHT22;8928;51.678;6.074;2023-04-03T01:00:48;0.00;99.90
17619;DHT22;8928;51.678;6.074;2023-04-03T01:03:38;0.00;99.90
17619;DHT22;8928;51.678;6.074;2023-04-03T01:06:29;0.00;99.90
17619;DHT22;8928;51.678;6.074;2023-04-03T01:09:18;0.00;99.90
17619;DHT22;8928;51.678;6.074;2023-04-03T01:12:15;-0.10;99.90
17619;DHT22;8928;51.678;6.074;2023-04-03T01:15:08;-0.10;99.90
17619;DHT22;8928;51.678;6.074;2023-04-03T01:17:56;-0.10;99.90
17619;DHT22;8928;51.678;6.074;2023-04-03T01:21:25;0.00;99.90
17619;DHT22;8928;51.678;6.074;2023-04-03T01:24:31;0.00;99.90
17619;DHT22;8928;51.678;6.074;2023-04-03T01:27:19;0.20;99.90
17619;DHT22;8928;51.678;6.074;2023-04-03T01:30:07;0.30;99.90
17619;DHT22;8928;51.678;6.074;2023-04-03T01:32:56;0.30;99.90
17619;DHT22;8928;51.678;6.074;2023-04-03T01:35:43;0.50;99.90
17619;DHT22;8928;51.678;6.074;2023-04-03T01:38:30;0.50;99.90
17619;DHT22;8928;51.678;6.074;2023-04-03T01:41:17;0.60;99.90
17619;DHT22;8928;51.678;6.074;2023-04-03T01:44:06;0.60;99.90
17619;DHT22;8928;51.678;6.074;2023-04-03T01:46:53;0.70;99.90
17619;DHT22;8928;51.678;6.074;2023-04-03T01:49:42;0.70;99.90
17619;DHT22;8928;51.678;6.074;2023-04-03T01:52:29;0.70;99.90
17619;DHT22;8928;51.678;6.074;2023-04-03T01:55:16;0.80;99.90
17619;DHT22;8928;51.678;6.074;2023-04-03T01:58:03;0.70;99.90
17619;DHT22;8928;51.678;6.074;2023-04-03T02:00:51;0.70;99.90
17619;DHT22;8928;51.678;6.074;2023-04-03T02:03:38;0.70;99.90
17619;DHT22;8928;51.678;6.074;2023-04-03T02:06:26;0.70;99.90
17619;DHT22;8928;51.678;6.074;2023-04-03T02:09:13;0.60;99.90
17619;DHT22;8928;51.678;6.074;2023-04-03T02:12:00;0.60;99.90
17619;DHT22;8928;51.678;6.074;2023-04-03T02:14:47;0.60;99.90
17619;DHT22;8928;51.678;6.074;2023-04-03T02:17:35;0.60;99.90
17619;DHT22;8928;51.678;6.074;2023-04-03T02:20:22;0.60;99.90
17619;DHT22;8928;51.678;6.074;2023-04-03T02:23:10;0.60;99.90
17619;DHT22;8928;51.678;6.074;2023-04-03T02:26:06;0.50;99.90
17619;DHT22;8928;51.678;6.074;2023-04-03T02:28:53;0.50;99.90
17619;DHT22;8928;51.678;6.074;2023-04-03T02:31:40;0.50;99.90
17619;DHT22;8928;51.678;6.074;2023-04-03T02:34:27;0.50;99.90
17619;DHT22;8928;51.678;6.074;2023-04-03T02:37:14;0.40;99.90
17619;DHT22;8928;51.678;6.074;2023-04-03T02:40:04;0.40;99.90
17619;DHT22;8928;51.678;6.074;2023-04-03T02:42:51;0.40;99.90
17619;DHT22;8928;51.678;6.074;2023-04-03T02:45:38;0.40;99.90
17619;DHT22;8928;51.678;6.074;2023-04-03T02:48:26;0.30;99.90
17619;DHT22;8928;51.678;6.074;2023-04-03T02:51:13;0.30;99.90
17619;DHT22;8928;51.678;6.074;2023-04-03T02:54:00;0.30;99.90
17619;DHT22;8928;51.678;6.074;2023-04-03T02:56:49;0.40;99.90
17619;DHT22;8928;51.678;6.074;2023-04-03T02:59:36;0.30;99.90
17619;DHT22;8928;51.678;6.074;2023-04-03T03:02:26;0.30;99.90
17619;DHT22;8928;51.678;6.074;2023-04-03T03:05:13;0.30;99.90
17619;DHT22;8928;51.678;6.074;2023-04-03T03:08:00;0.20;99.90
17619;DHT22;8928;51.678;6.074;2023-04-03T03:10:47;0.20;99.90
17619;DHT22;8928;51.678;6.074;2023-04-03T03:13:38;0.30;99.90
17619;DHT22;8928;51.678;6.074;2023-04-03T03:16:25;0.20;99.90
17619;DHT22;8928;51.678;6.074;2023-04-03T03:19:12;0.20;99.90
17619;DHT22;8928;51.678;6.074;2023-04-03T03:21:59;0.20;99.90
17619;DHT22;8928;51.678;6.074;2023-04-03T03:24:47;0.10;99.90
17619;DHT22;8928;51.678;6.074;2023-04-03T03:27:34;0.10;99.90
17619;DHT22;8928;51.678;6.074;2023-04-03T03:30:22;0.10;99.90
17619;DHT22;8928;51.678;6.074;2023-04-03T03:33:09;0.10;99.90
17619;DHT22;8928;51.678;6.074;2023-04-03T03:35:56;0.10;99.90
17619;DHT22;8928;51.678;6.074;2023-04-03T03:38:43;0.00;99.90
17619;DHT22;8928;51.678;6.074;2023-04-03T03:41:31;0.10;99.90
17619;DHT22;8928;51.678;6.074;2023-04-03T03:44:18;0.10;99.90
17619;DHT22;8928;51.678;6.074;2023-04-03T03:47:06;0.00;99.90
17619;DHT22;8928;51.678;6.074;2023-04-03T03:49:56;0.00;99.90
17619;DHT22;8928;51.678;6.074;2023-04-03T03:52:43;0.00;99.90
17619;DHT22;8928;51.678;6.074;2023-04-03T03:55:30;0.00;99.90
17619;DHT22;8928;51.678;6.074;2023-04-03T03:58:17;0.00;99.90
17619;DHT22;8928;51.678;6.074;2023-04-03T04:01:05;-0.10;99.90
17619;DHT22;8928;51.678;6.074;2023-04-03T04:03:54;0.00;99.90
17619;DHT22;8928;51.678;6.074;2023-04-03T04:06:41;0.00;99.90
17619;DHT22;8928;51.678;6.074;2023-04-03T04:09:28;0.00;99.90
17619;DHT22;8928;51.678;6.074;2023-04-03T04:12:15;0.00;99.90
17619;DHT22;8928;51.678;6.074;2023-04-03T04:15:03;0.00;99.90
17619;DHT22;8928;51.678;6.074;2023-04-03T04:17:50;0.00;99.90
17619;DHT22;8928;51.678;6.074;2023-04-03T04:20:38;0.00;99.90
17619;DHT22;8928;51.678;6.074;2023-04-03T04:23:25;0.00;99.90
17619;DHT22;8928;51.678;6.074;2023-04-03T04:26:12;0.00;99.90
17619;DHT22;8928;51.678;6.074;2023-04-03T04:28:59;0.00;99.90
17619;DHT22;8928;51.678;6.074;2023-04-03T04:31:46;-0.10;99.90
17619;DHT22;8928;51.678;6.074;2023-04-03T04:34:33;0.00;99.90
17619;DHT22;8928;51.678;6.074;2023-04-03T04:37:22;0.00;99.90
17619;DHT22;8928;51.678;6.074;2023-04-03T04:40:10;-0.10;99.90
17619;DHT22;8928;51.678;6.074;2023-04-03T04:42:57;-0.10;99.90
17619;DHT22;8928;51.678;6.074;2023-04-03T04:45:44;-0.10;99.90
17619;DHT22;8928;51.678;6.074;2023-04-03T04:48:31;-0.20;99.90
17619;DHT22;8928;51.678;6.074;2023-04-03T04:51:18;-0.20;99.90
17619;DHT22;8928;51.678;6.074;2023-04-03T04:54:07;-0.30;99.90
17619;DHT22;8928;51.678;6.074;2023-04-03T04:56:54;-0.20;99.90
17619;DHT22;8928;51.678;6.074;2023-04-03T04:59:41;-0.20;99.90
17619;DHT22;8928;51.678;6.074;2023-04-03T05:02:28;-0.20;99.90
17619;DHT22;8928;51.678;6.074;2023-04-03T05:05:15;-0.20;99.90
17619;DHT22;8928;51.678;6.074;2023-04-03T05:08:02;-0.20;99.90
17619;DHT22;8928;51.678;6.074;2023-04-03T05:10:51;-0.20;99.90
17619;DHT22;8928;51.678;6.074;2023-04-03T05:13:38;-0.20;99.90
17619;DHT22;8928;51.678;6.074;2023-04-03T05:16:25;-0.20;99.90
17619;DHT22;8928;51.678;6.074;2023-04-03T05:19:13;-0.20;99.90
17619;DHT22;8928;51.678;6.074;2023-04-03T05:22:00;-0.20;99.90
17619;DHT22;8928;51.678;6.074;2023-04-03T05:24:48;-0.20;99.90
17619;DHT22;8928;51.678;6.074;2023-04-03T05:27:36;-0.20;99.90
17619;DHT22;8928;51.678;6.074;2023-04-03T05:30:24;-0.10;99.90
17619;DHT22;8928;51.678;6.074;2023-04-03T05:33:11;-0.10;99.90
17619;DHT22;8928;51.678;6.074;2023-04-03T05:36:02;-0.10;99.90
17619;DHT22;8928;51.678;6.074;2023-04-03T05:38:50;-0.10;99.90
17619;DHT22;8928;51.678;6.074;2023-04-03T05:41:37;0.00;99.90
17619;DHT22;8928;51.678;6.074;2023-04-03T05:44:25;0.00;99.90
17619;DHT22;8928;51.678;6.074;2023-04-03T05:47:12;0.10;99.90
17619;DHT22;8928;51.678;6.074;2023-04-03T05:49:59;0.10;99.90
17619;DHT22;8928;51.678;6.074;2023-04-03T05:52:49;0.20;99.90
17619;DHT22;8928;51.678;6.074;2023-04-03T05:55:36;0.20;99.90
17619;DHT22;8928;51.678;6.074;2023-04-03T05:58:23;0.20;99.90
17619;DHT22;8928;51.678;6.074;2023-04-03T06:01:12;0.30;99.90
17619;DHT22;8928;51.678;6.074;2023-04-03T06:03:59;0.30;99.90
17619;DHT22;8928;51.678;6.074;2023-04-03T06:06:47;0.30;99.90
17619;DHT22;8928;51.678;6.074;2023-04-03T06:09:34;0.40;99.90
17619;DHT22;8928;51.678;6.074;2023-04-03T06:12:22;0.50;99.90
17619;DHT22;8928;51.678;6.074;2023-04-03T06:15:09;0.60;99.90
17619;DHT22;8928;51.678;6.074;2023-04-03T06:17:58;0.70;99.90
17619;DHT22;8928;51.678;6.074;2023-04-03T06:20:45;0.70;99.90
17619;DHT22;8928;51.678;6.074;2023-04-03T06:23:33;0.80;99.90
17619;DHT22;8928;51.678;6.074;2023-04-03T06:26:22;0.90;99.90
17619;DHT22;8928;51.678;6.074;2023-04-03T06:29:09;1.00;99.90
17619;DHT22;8928;51.678;6.074;2023-04-03T06:31:56;1.10;99.90
17619;DHT22;8928;51.678;6.074;2023-04-03T06:34:44;1.20;99.90
17619;DHT22;8928;51.678;6.074;2023-04-03T06:37:32;1.30;99.90
17619;DHT22;8928;51.678;6.074;2023-04-03T06:40:21;1.30;99.90
17619;DHT22;8928;51.678;6.074;2023-04-03T06:43:08;1.40;99.90
17619;DHT22;8928;51.678;6.074;2023-04-03T06:45:56;1.50;99.90
17619;DHT22;8928;51.678;6.074;2023-04-03T06:48:43;1.50;99.90
17619;DHT22;8928;51.678;6.074;2023-04-03T06:51:32;1.60;99.90
17619;DHT22;8928;51.678;6.074;2023-04-03T06:54:19;1.70;99.90
17619;DHT22;8928;51.678;6.074;2023-04-03T06:57:06;1.80;99.90
17619;DHT22;8928;51.678;6.074;2023-04-03T06:59:53;1.90;99.90
17619;DHT22;8928;51.678;6.074;2023-04-03T07:02:41;2.00;99.90
17619;DHT22;8928;51.678;6.074;2023-04-03T07:05:28;2.10;99.90
17619;DHT22;8928;51.678;6.074;2023-04-03T07:08:16;2.20;99.90
17619;DHT22;8928;51.678;6.074;2023-04-03T07:11:03;2.30;99.90
17619;DHT22;8928;51.678;6.074;2023-04-03T07:13:51;2.30;99.90
17619;DHT22;8928;51.678;6.074;2023-04-03T07:16:38;2.50;99.90
17619;DHT22;8928;51.678;6.074;2023-04-03T07:19:25;2.60;99.90
17619;DHT22;8928;51.678;6.074;2023-04-03T07:22:13;2.70;99.90
17619;DHT22;8928;51.678;6.074;2023-04-03T07:25:02;2.80;99.90
17619;DHT22;8928;51.678;6.074;2023-04-03T07:27:50;2.80;99.90
17619;DHT22;8928;51.678;6.074;2023-04-03T07:30:42;2.90;99.90
17619;DHT22;8928;51.678;6.074;2023-04-03T07:33:30;3.00;99.90
17619;DHT22;8928;51.678;6.074;2023-04-03T07:36:19;3.10;99.90
17619;DHT22;8928;51.678;6.074;2023-04-03T07:39:07;3.20;99.90
17619;DHT22;8928;51.678;6.074;2023-04-03T07:41:55;3.20;99.90
17619;DHT22;8928;51.678;6.074;2023-04-03T07:44:42;3.30;99.90
17619;DHT22;8928;51.678;6.074;2023-04-03T07:47:30;3.50;99.90
17619;DHT22;8928;51.678;6.074;2023-04-03T07:50:17;3.60;99.90
17619;DHT22;8928;51.678;6.074;2023-04-03T07:53:04;3.60;99.90
17619;DHT22;8928;51.678;6.074;2023-04-03T07:55:51;3.70;99.90
17619;DHT22;8928;51.678;6.074;2023-04-03T07:58:42;3.80;99.90
17619;DHT22;8928;51.678;6.074;2023-04-03T08:01:29;3.90;99.90
17619;DHT22;8928;51.678;6.074;2023-04-03T08:04:18;4.00;99.90
17619;DHT22;8928;51.678;6.074;2023-04-03T08:07:05;4.10;99.90
17619;DHT22;8928;51.678;6.074;2023-04-03T08:09:52;4.20;99.90
17619;DHT22;8928;51.678;6.074;2023-04-03T08:12:39;4.30;99.90
17619;DHT22;8928;51.678;6.074;2023-04-03T08:15:27;4.40;99.90
17619;DHT22;8928;51.678;6.074;2023-04-03T08:18:17;4.50;99.90
17619;DHT22;8928;51.678;6.074;2023-04-03T08:21:07;4.50;99.90
17619;DHT22;8928;51.678;6.074;2023-04-03T08:23:55;4.60;99.90
17619;DHT22;8928;51.678;6.074;2023-04-03T08:26:42;4.70;99.90
17619;DHT22;8928;51.678;6.074;2023-04-03T08:29:30;4.80;99.90
17619;DHT22;8928;51.678;6.074;2023-04-03T08:32:18;4.90;99.90
17619;DHT22;8928;51.678;6.074;2023-04-03T08:35:06;5.10;99.90
17619;DHT22;8928;51.678;6.074;2023-04-03T08:37:53;5.10;99.90
17619;DHT22;8928;51.678;6.074;2023-04-03T08:40:40;5.30;99.90
17619;DHT22;8928;51.678;6.074;2023-04-03T08:43:32;5.40;99.90
17619;DHT22;8928;51.678;6.074;2023-04-03T08:46:23;5.50;99.90
17619;DHT22;8928;51.678;6.074;2023-04-03T08:49:18;5.50;99.90
17619;DHT22;8928;51.678;6.074;2023-04-03T08:52:10;5.60;99.90
17619;DHT22;8928;51.678;6.074;2023-04-03T08:55:00;5.80;99.90
17619;DHT22;8928;51.678;6.074;2023-04-03T08:57:48;5.80;99.90
17619;DHT22;8928;51.678;6.074;2023-04-03T09:00:43;6.00;99.90
17619;DHT22;8928;51.678;6.074;2023-04-03T09:03:33;6.20;99.90
17619;DHT22;8928;51.678;6.074;2023-04-03T09:06:25;6.40;99.90
17619;DHT22;8928;51.678;6.074;2023-04-03T09:09:29;6.50;99.90
17619;DHT22;8928;51.678;6.074;2023-04-03T09:12:21;6.60;99.90
17619;DHT22;8928;51.678;6.074;2023-04-03T09:15:17;6.70;99.90
17619;DHT22;8928;51.678;6.074;2023-04-03T09:18:08;6.80;99.90
17619;DHT22;8928;51.678;6.074;2023-04-03T09:21:04;6.80;99.90
17619;DHT22;8928;51.678;6.074;2023-04-03T09:23:57;7.00;99.90
17619;DHT22;8928;51.678;6.074;2023-04-03T09:26:47;7.10;99.90
17619;DHT22;8928;51.678;6.074;2023-04-03T09:29:39;7.30;99.90
17619;DHT22;8928;51.678;6.074;2023-04-03T09:32:29;7.30;99.90
17619;DHT22;8928;51.678;6.074;2023-04-03T09:35:21;7.60;99.90
17619;DHT22;8928;51.678;6.074;2023-04-03T09:38:19;7.90;99.90
17619;DHT22;8928;51.678;6.074;2023-04-03T09:41:16;8.00;99.90
17619;DHT22;8928;51.678;6.074;2023-04-03T09:44:20;8.10;99.90
17619;DHT22;8928;51.678;6.074;2023-04-03T09:47:18;8.30;99.90
17619;DHT22;8928;51.678;6.074;2023-04-03T09:50:19;8.60;99.90
17619;DHT22;8928;51.678;6.074;2023-04-03T09:53:11;9.00;99.90
17619;DHT22;8928;51.678;6.074;2023-04-03T09:56:22;9.30;99.90
17619;DHT22;8928;51.678;6.074;2023-04-03T09:59:14;9.40;99.90
17619;DHT22;8928;51.678;6.074;2023-04-03T10:02:04;9.50;99.90
17619;DHT22;8928;51.678;6.074;2023-04-03T10:04:59;9.60;99.90
17619;DHT22;8928;51.678;6.074;2023-04-03T10:07:46;9.70;99.90
17619;DHT22;8928;51.678;6.074;2023-04-03T10:10:33;9.90;99.90
17619;DHT22;8928;51.678;6.074;2023-04-03T10:13:22;10.10;99.90
17619;DHT22;8928;51.678;6.074;2023-04-03T10:16:13;10.20;99.90
17619;DHT22;8928;51.678;6.074;2023-04-03T10:19:14;10.20;99.80
17619;DHT22;8928;51.678;6.074;2023-04-03T10:22:15;10.40;99.90
17619;DHT22;8928;51.678;6.074;2023-04-03T10:25:09;10.50;98.00
17619;DHT22;8928;51.678;6.074;2023-04-03T10:28:01;10.50;96.70
17619;DHT22;8928;51.678;6.074;2023-04-03T10:30:53;10.70;95.50
17619;DHT22;8928;51.678;6.074;2023-04-03T10:33:56;10.90;93.10
17619;DHT22;8928;51.678;6.074;2023-04-03T10:36:50;11.00;92.20
17619;DHT22;8928;51.678;6.074;2023-04-03T10:39:49;11.10;92.00
17619;DHT22;8928;51.678;6.074;2023-04-03T10:42:43;11.50;93.70
17619;DHT22;8928;51.678;6.074;2023-04-03T10:45:49;11.60;91.50
17619;DHT22;8928;51.678;6.074;2023-04-03T10:48:48;11.60;91.20
17619;DHT22;8928;51.678;6.074;2023-04-03T10:51:43;11.90;91.10
17619;DHT22;8928;51.678;6.074;2023-04-03T10:54:36;12.20;89.60
17619;DHT22;8928;51.678;6.074;2023-04-03T10:57:25;12.30;88.00
17619;DHT22;8928;51.678;6.074;2023-04-03T11:00:16;12.40;89.50
17619;DHT22;8928;51.678;6.074;2023-04-03T11:03:11;12.70;90.00
17619;DHT22;8928;51.678;6.074;2023-04-03T11:06:02;12.70;80.60
17619;DHT22;8928;51.678;6.074;2023-04-03T11:08:53;12.40;71.60
17619;DHT22;8928;51.678;6.074;2023-04-03T11:11:43;12.40;76.20
17619;DHT22;8928;51.678;6.074;2023-04-03T11:14:31;12.40;72.50
17619;DHT22;8928;51.678;6.074;2023-04-03T11:17:28;12.30;72.30
17619;DHT22;8928;51.678;6.074;2023-04-03T11:20:21;12.50;76.20
17619;DHT22;8928;51.678;6.074;2023-04-03T11:23:19;12.70;74.40
17619;DHT22;8928;51.678;6.074;2023-04-03T11:26:12;12.70;73.10
17619;DHT22;8928;51.678;6.074;2023-04-03T11:29:03;12.80;73.70
17619;DHT22;8928;51.678;6.074;2023-04-03T11:32:05;12.90;73.20
17619;DHT22;8928;51.678;6.074;2023-04-03T11:34:56;13.00;71.60
17619;DHT22;8928;51.678;6.074;2023-04-03T11:37:48;13.10;69.90
17619;DHT22;8928;51.678;6.074;2023-04-03T11:40:38;13.10;69.40
17619;DHT22;8928;51.678;6.074;2023-04-03T11:43:28;13.10;70.80
17619;DHT22;8928;51.678;6.074;2023-04-03T11:46:16;13.40;71.80
17619;DHT22;8928;51.678;6.074;2023-04-03T11:49:08;13.30;70.00
17619;DHT22;8928;51.678;6.074;2023-04-03T11:55:53;13.70;73.30
17619;DHT22;8928;51.678;6.074;2023-04-03T11:59:22;13.70;70.00
17619;DHT22;8928;51.678;6.074;2023-04-03T12:02:35;13.90;66.80
17619;DHT22;8928;51.678;6.074;2023-04-03T12:05:27;14.20;68.90
17619;DHT22;8928;51.678;6.074;2023-04-03T12:08:25;14.10;66.40
17619;DHT22;8928;51.678;6.074;2023-04-03T12:11:24;14.00;66.40
17619;DHT22;8928;51.678;6.074;2023-04-03T12:14:15;14.20;68.90
17619;DHT22;8928;51.678;6.074;2023-04-03T12:17:02;14.50;70.80
17619;DHT22;8928;51.678;6.074;2023-04-03T12:19:49;14.70;68.90
17619;DHT22;8928;51.678;6.074;2023-04-03T12:22:36;14.60;67.50
17619;DHT22;8928;51.678;6.074;2023-04-03T12:25:48;14.50;65.50
17619;DHT22;8928;51.678;6.074;2023-04-03T12:28:39;14.60;66.90
17619;DHT22;8928;51.678;6.074;2023-04-03T12:31:40;14.60;67.80
17619;DHT22;8928;51.678;6.074;2023-04-03T12:34:55;14.50;66.00
17619;DHT22;8928;51.678;6.074;2023-04-03T12:38:11;14.50;63.40
17619;DHT22;8928;51.678;6.074;2023-04-03T12:41:16;14.70;64.00
17619;DHT22;8928;51.678;6.074;2023-04-03T12:44:22;14.80;62.90
17619;DHT22;8928;51.678;6.074;2023-04-03T12:47:23;15.00;64.30
17619;DHT22;8928;51.678;6.074;2023-04-03T12:50:23;15.00;63.50
17619;DHT22;8928;51.678;6.074;2023-04-03T12:53:13;15.10;61.20
17619;DHT22;8928;51.678;6.074;2023-04-03T12:56:19;15.10;63.40
17619;DHT22;8928;51.678;6.074;2023-04-03T12:59:16;15.40;62.10
17619;DHT22;8928;51.678;6.074;2023-04-03T13:02:15;15.70;64.60
17619;DHT22;8928;51.678;6.074;2023-04-03T13:05:06;16.00;61.60
17619;DHT22;8928;51.678;6.074;2023-04-03T13:07:58;16.00;61.30
17619;DHT22;8928;51.678;6.074;2023-04-03T13:10:54;15.90;60.90
17619;DHT22;8928;51.678;6.074;2023-04-03T13:13:54;16.30;60.00
17619;DHT22;8928;51.678;6.074;2023-04-03T13:16:52;16.70;59.40
17619;DHT22;8928;51.678;6.074;2023-04-03T13:19:40;16.80;60.00
17619;DHT22;8928;51.678;6.074;2023-04-03T13:22:29;17.20;61.50
17619;DHT22;8928;51.678;6.074;2023-04-03T13:25:20;18.00;59.70
17619;DHT22;8928;51.678;6.074;2023-04-03T13:28:11;18.60;59.70
17619;DHT22;8928;51.678;6.074;2023-04-03T13:31:03;18.70;56.30
17619;DHT22;8928;51.678;6.074;2023-04-03T13:33:56;18.50;55.80
17619;DHT22;8928;51.678;6.074;2023-04-03T13:36:45;18.40;53.60
17619;DHT22;8928;51.678;6.074;2023-04-03T13:39:40;19.00;53.50
17619;DHT22;8928;51.678;6.074;2023-04-03T13:42:29;18.70;51.30
17619;DHT22;8928;51.678;6.074;2023-04-03T13:45:20;18.60;51.00
17619;DHT22;8928;51.678;6.074;2023-04-03T13:48:17;18.90;52.20
17619;DHT22;8928;51.678;6.074;2023-04-03T13:51:16;19.10;52.90
17619;DHT22;8928;51.678;6.074;2023-04-03T13:54:16;19.10;49.50
17619;DHT22;8928;51.678;6.074;2023-04-03T13:57:12;19.30;48.90
17619;DHT22;8928;51.678;6.074;2023-04-03T13:59:59;19.40;49.00
17619;DHT22;8928;51.678;6.074;2023-04-03T14:02:47;19.50;48.20
17619;DHT22;8928;51.678;6.074;2023-04-03T14:05:34;19.70;49.00
17619;DHT22;8928;51.678;6.074;2023-04-03T14:08:23;19.40;46.90
17619;DHT22;8928;51.678;6.074;2023-04-03T14:11:14;19.40;47.70
17619;DHT22;8928;51.678;6.074;2023-04-03T14:14:06;19.90;46.60
17619;DHT22;8928;51.678;6.074;2023-04-03T14:16:58;20.20;46.80
17619;DHT22;8928;51.678;6.074;2023-04-03T14:19:46;20.30;46.00
17619;DHT22;8928;51.678;6.074;2023-04-03T14:22:33;20.20;44.50
17619;DHT22;8928;51.678;6.074;2023-04-03T14:25:22;20.00;44.20
17619;DHT22;8928;51.678;6.074;2023-04-03T14:28:16;20.00;43.50
17619;DHT22;8928;51.678;6.074;2023-04-03T14:31:03;19.90;43.30
17619;DHT22;8928;51.678;6.074;2023-04-03T14:33:51;19.70;44.00
17619;DHT22;8928;51.678;6.074;2023-04-03T14:36:39;19.90;43.00
17619;DHT22;8928;51.678;6.074;2023-04-03T14:39:27;19.60;42.40
17619;DHT22;8928;51.678;6.074;2023-04-03T14:42:18;20.10;43.90
17619;DHT22;8928;51.678;6.074;2023-04-03T14:45:08;20.60;41.90
17619;DHT22;8928;51.678;6.074;2023-04-03T14:47:56;21.20;42.80
17619;DHT22;8928;51.678;6.074;2023-04-03T14:50:43;20.60;41.40
17619;DHT22;8928;51.678;6.074;2023-04-03T14:53:30;20.50;42.00
17619;DHT22;8928;51.678;6.074;2023-04-03T14:56:19;20.90;42.40
17619;DHT22;8928;51.678;6.074;2023-04-03T14:59:11;21.10;40.50
17619;DHT22;8928;51.678;6.074;2023-04-03T15:02:00;20.90;41.80
17619;DHT22;8928;51.678;6.074;2023-04-03T15:04:47;20.90;41.20
17619;DHT22;8928;51.678;6.074;2023-04-03T15:07:36;21.40;41.30
17619;DHT22;8928;51.678;6.074;2023-04-03T15:10:26;22.10;42.50
17619;DHT22;8928;51.678;6.074;2023-04-03T15:13:14;21.50;38.60
17619;DHT22;8928;51.678;6.074;2023-04-03T15:16:02;21.90;40.10
17619;DHT22;8928;51.678;6.074;2023-04-03T15:18:50;22.00;40.20
17619;DHT22;8928;51.678;6.074;2023-04-03T15:21:37;22.30;38.90
17619;DHT22;8928;51.678;6.074;2023-04-03T15:24:24;22.40;38.70
17619;DHT22;8928;51.678;6.074;2023-04-03T15:27:12;22.70;38.70
17619;DHT22;8928;51.678;6.074;2023-04-03T15:30:01;22.30;38.20
17619;DHT22;8928;51.678;6.074;2023-04-03T15:32:49;22.40;36.50
17619;DHT22;8928;51.678;6.074;2023-04-03T15:35:36;22.60;37.10
17619;DHT22;8928;51.678;6.074;2023-04-03T15:38:23;22.40;36.00
17619;DHT22;8928;51.678;6.074;2023-04-03T15:41:10;21.80;35.40
17619;DHT22;8928;51.678;6.074;2023-04-03T15:43:58;21.80;38.30
17619;DHT22;8928;51.678;6.074;2023-04-03T15:46:45;21.90;36.90
17619;DHT22;8928;51.678;6.074;2023-04-03T15:49:34;22.30;37.90
17619;DHT22;8928;51.678;6.074;2023-04-03T15:52:21;22.20;36.20
17619;DHT22;8928;51.678;6.074;2023-04-03T15:55:09;22.20;37.50
17619;DHT22;8928;51.678;6.074;2023-04-03T15:57:56;22.30;38.00
17619;DHT22;8928;51.678;6.074;2023-04-03T16:00:43;22.30;36.00
17619;DHT22;8928;51.678;6.074;2023-04-03T16:03:30;22.00;36.20
17619;DHT22;8928;51.678;6.074;2023-04-03T16:06:19;22.00;37.10
17619;DHT22;8928;51.678;6.074;2023-04-03T16:09:06;22.40;35.60
17619;DHT22;8928;51.678;6.074;2023-04-03T16:11:54;21.80;36.00
17619;DHT22;8928;51.678;6.074;2023-04-03T16:14:41;22.00;34.90
17619;DHT22;8928;51.678;6.074;2023-04-03T16:17:29;21.20;34.70
17619;DHT22;8928;51.678;6.074;2023-04-03T16:20:16;20.20;35.30
17619;DHT22;8928;51.678;6.074;2023-04-03T16:23:05;20.00;35.50
17619;DHT22;8928;51.678;6.074;2023-04-03T16:25:52;19.70;36.60
17619;DHT22;8928;51.678;6.074;2023-04-03T16:28:39;20.20;37.40
17619;DHT22;8928;51.678;6.074;2023-04-03T16:31:27;20.60;36.10
17619;DHT22;8928;51.678;6.074;2023-04-03T16:34:14;20.70;36.00
17619;DHT22;8928;51.678;6.074;2023-04-03T16:37:02;21.00;36.50
17619;DHT22;8928;51.678;6.074;2023-04-03T16:39:50;20.80;36.40
17619;DHT22;8928;51.678;6.074;2023-04-03T16:42:37;20.70;36.00
17619;DHT22;8928;51.678;6.074;2023-04-03T16:45:24;20.70;36.90
17619;DHT22;8928;51.678;6.074;2023-04-03T16:48:11;20.70;37.40
17619;DHT22;8928;51.678;6.074;2023-04-03T16:50:59;20.70;36.50
17619;DHT22;8928;51.678;6.074;2023-04-03T16:53:46;20.00;35.60
17619;DHT22;8928;51.678;6.074;2023-04-03T16:56:35;19.40;36.60
17619;DHT22;8928;51.678;6.074;2023-04-03T16:59:22;18.80;36.40
17619;DHT22;8928;51.678;6.074;2023-04-03T17:02:09;18.60;37.10
17619;DHT22;8928;51.678;6.074;2023-04-03T17:04:56;18.50;36.50
17619;DHT22;8928;51.678;6.074;2023-04-03T17:07:43;18.10;37.20
17619;DHT22;8928;51.678;6.074;2023-04-03T17:10:30;17.80;37.80
17619;DHT22;8928;51.678;6.074;2023-04-03T17:13:20;17.90;38.50
17619;DHT22;8928;51.678;6.074;2023-04-03T17:16:11;18.00;38.50
17619;DHT22;8928;51.678;6.074;2023-04-03T17:18:59;17.10;38.60
17619;DHT22;8928;51.678;6.074;2023-04-03T17:21:46;17.30;38.80
17619;DHT22;8928;51.678;6.074;2023-04-03T17:24:33;16.70;38.60
17619;DHT22;8928;51.678;6.074;2023-04-03T17:27:21;16.30;39.70
17619;DHT22;8928;51.678;6.074;2023-04-03T17:30:10;15.50;40.10
17619;DHT22;8928;51.678;6.074;2023-04-03T17:32:57;14.60;41.70
17619;DHT22;8928;51.678;6.074;2023-04-03T17:35:44;14.10;43.00
17619;DHT22;8928;51.678;6.074;2023-04-03T17:38:32;13.50;43.90
17619;DHT22;8928;51.678;6.074;2023-04-03T17:41:20;12.60;45.40
17619;DHT22;8928;51.678;6.074;2023-04-03T17:44:07;11.60;47.40
17619;DHT22;8928;51.678;6.074;2023-04-03T17:46:56;10.90;49.30
17619;DHT22;8928;51.678;6.074;2023-04-03T17:49:43;10.30;51.60
17619;DHT22;8928;51.678;6.074;2023-04-03T17:52:30;9.90;52.90
17619;DHT22;8928;51.678;6.074;2023-04-03T17:55:17;9.30;52.80
17619;DHT22;8928;51.678;6.074;2023-04-03T17:58:04;8.90;54.80
17619;DHT22;8928;51.678;6.074;2023-04-03T18:00:51;8.50;57.30
17619;DHT22;8928;51.678;6.074;2023-04-03T18:03:41;8.30;58.90
17619;DHT22;8928;51.678;6.074;2023-04-03T18:06:31;8.00;61.50
17619;DHT22;8928;51.678;6.074;2023-04-03T18:09:20;7.70;63.60
17619;DHT22;8928;51.678;6.074;2023-04-03T18:12:08;7.60;66.50
17619;DHT22;8928;51.678;6.074;2023-04-03T18:14:57;7.30;68.80
17619;DHT22;8928;51.678;6.074;2023-04-03T18:17:44;7.10;72.10
17619;DHT22;8928;51.678;6.074;2023-04-03T18:20:36;6.90;76.00
17619;DHT22;8928;51.678;6.074;2023-04-03T18:23:23;6.70;78.60